createdAt,value
2017-08-20T00:00:30.584Z,0
2017-08-20T00:01:30.304Z,0
2017-08-20T00:02:30.953Z,0
2017-08-20T00:03:30.980Z,0
2017-08-20T00:04:30.370Z,0
2017-08-20T00:05:30.705Z,0
2017-08-20T00:06:30.722Z,0
2017-08-20T00:07:30.748Z,0
2017-08-20T00:08:30.775Z,0
2017-08-20T00:09:31.111Z,0
2017-08-20T00:10:31.162Z,0
2017-08-20T00:11:31.362Z,0
2017-08-20T00:12:30.859Z,0
2017-08-20T00:13:30.878Z,0
2017-08-20T00:14:30.924Z,0
2017-08-20T00:15:31.275Z,0
2017-08-20T00:16:31.266Z,0
2017-08-20T00:17:31.290Z,0
2017-08-20T00:18:31.366Z,0
2017-08-20T00:19:31.336Z,0
2017-08-20T00:20:30.731Z,0
2017-08-20T00:21:31.383Z,0
2017-08-20T00:22:31.408Z,0
2017-08-20T00:23:31.118Z,0
2017-08-20T00:24:31.172Z,0
2017-08-20T00:25:31.373Z,0
2017-08-20T00:26:31.387Z,0
2017-08-20T00:27:31.209Z,0
2017-08-20T00:28:31.656Z,0
2017-08-20T00:29:31.257Z,0
2017-08-20T00:30:31.280Z,0
2017-08-20T00:31:31.676Z,0
2017-08-20T00:32:31.361Z,0
2017-08-20T00:33:31.041Z,0
2017-08-20T00:34:31.375Z,0
2017-08-20T00:35:31.078Z,0
2017-08-20T00:36:31.745Z,0
2017-08-20T00:37:31.493Z,0
2017-08-20T00:38:31.774Z,0
2017-08-20T00:39:31.681Z,0
2017-08-20T00:40:31.842Z,0
2017-08-20T00:41:31.531Z,0
2017-08-20T00:42:31.863Z,0
2017-08-20T00:43:31.890Z,0
2017-08-20T00:44:31.915Z,0
2017-08-20T00:45:31.619Z,0
2017-08-20T00:46:31.959Z,0
2017-08-20T00:47:31.988Z,0
2017-08-20T00:48:31.697Z,0
2017-08-20T00:49:31.712Z,0
2017-08-20T00:50:31.737Z,0
2017-08-20T00:51:32.170Z,0
2017-08-20T00:52:32.197Z,0
2017-08-20T00:53:32.127Z,0
2017-08-20T00:54:32.195Z,0
2017-08-20T00:55:32.210Z,0
2017-08-20T00:56:32.203Z,0
2017-08-20T00:57:32.339Z,0
2017-08-20T00:58:31.601Z,0
2017-08-20T00:59:31.942Z,0
2017-08-20T01:00:31.701Z,0
2017-08-20T01:01:32.303Z,0
2017-08-20T01:02:32.017Z,0
2017-08-20T01:03:32.026Z,0
2017-08-20T01:04:32.377Z,0
2017-08-20T01:05:32.082Z,0
2017-08-20T01:06:32.418Z,0
2017-08-20T01:07:31.692Z,0
2017-08-20T01:08:32.161Z,0
2017-08-20T01:09:32.174Z,0
2017-08-20T01:10:32.196Z,0
2017-08-20T01:11:32.538Z,0
2017-08-20T01:12:32.565Z,0
2017-08-20T01:13:32.579Z,0
2017-08-20T01:14:32.608Z,0
2017-08-20T01:15:32.328Z,0
2017-08-20T01:16:32.785Z,0
2017-08-20T01:17:32.908Z,0
2017-08-20T01:18:32.469Z,0
2017-08-20T01:19:32.792Z,0
2017-08-20T01:20:32.471Z,0
2017-08-20T01:21:32.450Z,0
2017-08-20T01:22:32.791Z,0
2017-08-20T01:23:32.873Z,0
2017-08-20T01:24:32.855Z,0
2017-08-20T01:25:32.535Z,0
2017-08-20T01:26:32.578Z,0
2017-08-20T01:27:31.963Z,0
2017-08-20T01:28:32.920Z,0
2017-08-20T01:29:33.080Z,0
2017-08-20T01:30:32.644Z,0
2017-08-20T01:31:32.993Z,0
2017-08-20T01:32:32.705Z,0
2017-08-20T01:33:33.046Z,0
2017-08-20T01:34:33.172Z,0
2017-08-20T01:35:32.766Z,0
2017-08-20T01:36:33.107Z,0
2017-08-20T01:37:33.137Z,0
2017-08-20T01:38:32.832Z,0
2017-08-20T01:39:32.978Z,0
2017-08-20T01:40:33.202Z,0
2017-08-20T01:41:33.215Z,0
2017-08-20T01:42:33.247Z,0
2017-08-20T01:43:32.939Z,0
2017-08-20T01:44:33.308Z,0
2017-08-20T01:45:33.309Z,0
2017-08-20T01:46:32.698Z,0
2017-08-20T01:47:33.041Z,0
2017-08-20T01:48:32.742Z,0
2017-08-20T01:49:32.758Z,0
2017-08-20T01:50:32.789Z,0
2017-08-20T01:51:33.448Z,0
2017-08-20T01:52:33.477Z,0
2017-08-20T01:53:32.859Z,0
2017-08-20T01:54:33.540Z,0
2017-08-20T01:55:33.217Z,0
2017-08-20T01:56:33.359Z,0
2017-08-20T01:57:33.665Z,0
2017-08-20T01:58:33.691Z,0
2017-08-20T01:59:33.699Z,0
2017-08-20T02:00:33.651Z,0
2017-08-20T02:01:34.002Z,0
2017-08-20T02:02:33.466Z,0
2017-08-20T02:03:33.494Z,0
2017-08-20T02:04:33.504Z,0
2017-08-20T02:05:33.686Z,0
2017-08-20T02:06:33.363Z,0
2017-08-20T02:07:34.119Z,0
2017-08-20T02:08:34.005Z,0
2017-08-20T02:09:33.362Z,0
2017-08-20T02:10:33.090Z,0
2017-08-20T02:11:33.690Z,0
2017-08-20T02:12:33.369Z,0
2017-08-20T02:13:33.825Z,0
2017-08-20T02:14:34.148Z,0
2017-08-20T02:15:33.166Z,0
2017-08-20T02:16:34.131Z,0
2017-08-20T02:17:33.786Z,0
2017-08-20T02:18:33.415Z,0
2017-08-20T02:19:33.443Z,0
2017-08-20T02:20:33.889Z,0
2017-08-20T02:21:33.893Z,0
2017-08-20T02:22:33.995Z,0
2017-08-20T02:23:34.208Z,0
2017-08-20T02:24:33.893Z,0
2017-08-20T02:25:33.688Z,0
2017-08-20T02:26:34.251Z,0
2017-08-20T02:27:34.456Z,0
2017-08-20T02:28:34.283Z,0
2017-08-20T02:29:34.301Z,0
2017-08-20T02:30:48.892Z,0
2017-08-20T02:31:34.349Z,0
2017-08-20T02:32:33.720Z,0
2017-08-20T02:33:34.416Z,0
2017-08-20T02:34:34.500Z,0
2017-08-20T02:35:34.438Z,0
2017-08-20T02:36:34.138Z,0
2017-08-20T02:37:34.522Z,0
2017-08-20T02:38:34.572Z,0
2017-08-20T02:39:34.541Z,0
2017-08-20T02:40:34.638Z,0
2017-08-20T02:41:34.285Z,0
2017-08-20T02:42:34.278Z,0
2017-08-20T02:43:34.118Z,0
2017-08-20T02:44:34.693Z,0
2017-08-20T02:45:34.342Z,0
2017-08-20T02:46:34.761Z,0
2017-08-20T02:47:34.597Z,0
2017-08-20T02:48:35.010Z,0
2017-08-20T02:49:35.010Z,0
2017-08-20T02:50:34.609Z,0
2017-08-20T02:51:35.165Z,0
2017-08-20T02:52:35.005Z,0
2017-08-20T02:53:34.739Z,0
2017-08-20T02:54:35.054Z,0
2017-08-20T02:55:34.755Z,0
2017-08-20T02:56:34.988Z,0
2017-08-20T02:57:34.298Z,0
2017-08-20T02:58:34.636Z,0
2017-08-20T02:59:34.657Z,0
2017-08-20T03:00:34.703Z,0
2017-08-20T03:01:35.131Z,0
2017-08-20T03:02:35.349Z,0
2017-08-20T03:03:35.167Z,0
2017-08-20T03:04:35.086Z,0
2017-08-20T03:05:34.783Z,0
2017-08-20T03:06:35.137Z,0
2017-08-20T03:07:35.149Z,0
2017-08-20T03:08:34.680Z,0
2017-08-20T03:09:35.321Z,0
2017-08-20T03:10:35.229Z,0
2017-08-20T03:11:35.236Z,0
2017-08-20T03:12:35.268Z,0
2017-08-20T03:13:35.277Z,0
2017-08-20T03:14:35.317Z,0
2017-08-20T03:15:35.461Z,0
2017-08-20T03:16:35.352Z,0
2017-08-20T03:17:35.059Z,0
2017-08-20T03:18:35.270Z,0
2017-08-20T03:19:35.418Z,0
2017-08-20T03:20:35.196Z,0
2017-08-20T03:21:35.339Z,0
2017-08-20T03:22:35.487Z,0
2017-08-20T03:23:35.208Z,0
2017-08-20T03:24:35.820Z,0
2017-08-20T03:25:35.234Z,0
2017-08-20T03:26:35.317Z,0
2017-08-20T03:27:35.602Z,0
2017-08-20T03:28:34.989Z,0
2017-08-20T03:29:35.323Z,0
2017-08-20T03:30:35.349Z,0
2017-08-20T03:31:35.466Z,0
2017-08-20T03:32:36.175Z,0
2017-08-20T03:33:35.757Z,0
2017-08-20T03:34:35.757Z,0
2017-08-20T03:35:35.458Z,0
2017-08-20T03:36:35.481Z,0
2017-08-20T03:37:35.817Z,0
2017-08-20T03:38:35.322Z,0
2017-08-20T03:39:35.856Z,0
2017-08-20T03:40:35.567Z,0
2017-08-20T03:41:35.722Z,0
2017-08-20T03:42:35.930Z,0
2017-08-20T03:43:35.951Z,0
2017-08-20T03:44:35.801Z,0
2017-08-20T03:45:36.156Z,0
2017-08-20T03:46:36.310Z,0
2017-08-20T03:47:35.882Z,0
2017-08-20T03:48:36.060Z,0
2017-08-20T03:49:35.783Z,0
2017-08-20T03:50:35.796Z,0
2017-08-20T03:51:36.134Z,0
2017-08-20T03:52:35.516Z,0
2017-08-20T03:53:35.537Z,0
2017-08-20T03:54:35.559Z,0
2017-08-20T03:55:35.917Z,0
2017-08-20T03:56:35.604Z,0
2017-08-20T03:57:35.403Z,0
2017-08-20T03:58:35.961Z,0
2017-08-20T03:59:35.988Z,0
2017-08-20T04:00:36.419Z,0
2017-08-20T04:01:36.035Z,0
2017-08-20T04:02:35.747Z,0
2017-08-20T04:03:35.755Z,0
2017-08-20T04:04:36.095Z,0
2017-08-20T04:05:35.805Z,0
2017-08-20T04:06:36.461Z,0
2017-08-20T04:07:35.858Z,0
2017-08-20T04:08:35.867Z,0
2017-08-20T04:09:36.670Z,0
2017-08-20T04:10:35.705Z,0
2017-08-20T04:11:36.030Z,0
2017-08-20T04:12:36.513Z,0
2017-08-20T04:13:37.080Z,0
2017-08-20T04:14:36.513Z,0
2017-08-20T04:15:36.514Z,0
2017-08-20T04:16:36.514Z,0
2017-08-20T04:17:36.188Z,0
2017-08-20T04:18:36.193Z,0
2017-08-20T04:19:36.550Z,0
2017-08-20T04:20:36.448Z,0
2017-08-20T04:21:36.517Z,0
2017-08-20T04:22:36.173Z,0
2017-08-20T04:23:36.844Z,0
2017-08-20T04:24:36.538Z,0
2017-08-20T04:25:36.878Z,0
2017-08-20T04:26:36.585Z,0
2017-08-20T04:27:36.649Z,0
2017-08-20T04:28:36.945Z,0
2017-08-20T04:29:36.973Z,0
2017-08-20T04:30:36.670Z,0
2017-08-20T04:31:37.043Z,0
2017-08-20T04:32:36.998Z,0
2017-08-20T04:33:37.051Z,0
2017-08-20T04:34:36.753Z,0
2017-08-20T04:35:36.779Z,0
2017-08-20T04:36:36.803Z,0
2017-08-20T04:37:36.817Z,0
2017-08-20T04:38:36.846Z,0
2017-08-20T04:39:36.868Z,0
2017-08-20T04:40:36.575Z,0
2017-08-20T04:41:36.596Z,0
2017-08-20T04:42:36.626Z,0
2017-08-20T04:43:37.366Z,0
2017-08-20T04:44:37.095Z,0
2017-08-20T04:45:37.312Z,0
2017-08-20T04:46:37.496Z,0
2017-08-20T04:47:37.721Z,0
2017-08-20T04:48:37.383Z,0
2017-08-20T04:49:37.407Z,0
2017-08-20T04:50:37.555Z,0
2017-08-20T04:51:37.471Z,0
2017-08-20T04:52:37.277Z,0
2017-08-20T04:53:37.539Z,0
2017-08-20T04:54:36.892Z,0
2017-08-20T04:55:37.727Z,0
2017-08-20T04:56:37.246Z,0
2017-08-20T04:57:37.257Z,0
2017-08-20T04:58:37.599Z,0
2017-08-20T04:59:37.618Z,0
2017-08-20T05:00:37.639Z,0
2017-08-20T05:01:37.664Z,0
2017-08-20T05:02:37.693Z,0
2017-08-20T05:03:37.701Z,0
2017-08-20T05:04:37.408Z,0
2017-08-20T05:05:37.745Z,0
2017-08-20T05:06:37.769Z,0
2017-08-20T05:07:37.786Z,0
2017-08-20T05:08:37.823Z,0
2017-08-20T05:09:38.041Z,0
2017-08-20T05:10:37.545Z,0
2017-08-20T05:11:37.878Z,0
2017-08-20T05:12:37.612Z,0
2017-08-20T05:13:37.637Z,0
2017-08-20T05:14:37.627Z,0
2017-08-20T05:15:37.961Z,0
2017-08-20T05:16:37.687Z,0
2017-08-20T05:17:38.010Z,0
2017-08-20T05:18:37.716Z,0
2017-08-20T05:19:38.083Z,0
2017-08-20T05:20:38.076Z,0
2017-08-20T05:21:37.778Z,5
2017-08-20T05:22:37.802Z,5
2017-08-20T05:23:38.137Z,5
2017-08-20T05:24:37.848Z,5
2017-08-20T05:25:38.191Z,5
2017-08-20T05:26:38.009Z,5
2017-08-20T05:27:38.326Z,5
2017-08-20T05:28:38.356Z,5
2017-08-20T05:29:37.645Z,5
2017-08-20T05:30:37.668Z,5
2017-08-20T05:31:38.482Z,5
2017-08-20T05:32:39.702Z,5
2017-08-20T05:33:38.375Z,5
2017-08-20T05:34:38.065Z,5
2017-08-20T05:35:37.771Z,5
2017-08-20T05:36:38.113Z,5
2017-08-20T05:37:38.544Z,5
2017-08-20T05:38:37.950Z,5
2017-08-20T05:39:37.969Z,5
2017-08-20T05:40:38.279Z,5
2017-08-20T05:41:38.621Z,5
2017-08-20T05:42:38.349Z,5
2017-08-20T05:43:38.361Z,5
2017-08-20T05:44:38.397Z,5
2017-08-20T05:45:38.419Z,5
2017-08-20T05:46:38.422Z,5
2017-08-20T05:47:38.561Z,5
2017-08-20T05:48:38.876Z,5
2017-08-20T05:49:38.558Z,5
2017-08-20T05:50:38.439Z,5
2017-08-20T05:51:38.448Z,5
2017-08-20T05:52:38.578Z,5
2017-08-20T05:53:38.589Z,5
2017-08-20T05:54:37.976Z,5
2017-08-20T05:55:38.420Z,5
2017-08-20T05:56:38.948Z,5
2017-08-20T05:57:38.664Z,5
2017-08-20T05:58:38.643Z,5
2017-08-20T05:59:38.952Z,5
2017-08-20T06:00:38.637Z,5
2017-08-20T06:01:38.424Z,5
2017-08-20T06:02:38.679Z,5
2017-08-20T06:03:38.886Z,5
2017-08-20T06:04:38.889Z,5
2017-08-20T06:05:38.725Z,5
2017-08-20T06:06:38.889Z,5
2017-08-20T06:07:39.094Z,5
2017-08-20T06:08:39.234Z,5
2017-08-20T06:09:38.834Z,5
2017-08-20T06:10:38.749Z,5
2017-08-20T06:11:38.941Z,5
2017-08-20T06:12:39.212Z,5
2017-08-20T06:13:38.907Z,5
2017-08-20T06:14:38.761Z,5
2017-08-20T06:15:39.488Z,5
2017-08-20T06:16:39.298Z,5
2017-08-20T06:17:38.746Z,5
2017-08-20T06:18:38.574Z,5
2017-08-20T06:19:39.078Z,5
2017-08-20T06:20:39.062Z,5
2017-08-20T06:21:39.426Z,5
2017-08-20T06:22:39.438Z,5
2017-08-20T06:23:38.912Z,5
2017-08-20T06:24:39.175Z,5
2017-08-20T06:25:39.166Z,5
2017-08-20T06:26:38.873Z,5
2017-08-20T06:27:39.207Z,5
2017-08-20T06:28:39.238Z,5
2017-08-20T06:29:38.943Z,5
2017-08-20T06:30:39.596Z,5
2017-08-20T06:31:39.302Z,5
2017-08-20T06:32:40.035Z,5
2017-08-20T06:33:39.033Z,5
2017-08-20T06:34:39.812Z,5
2017-08-20T06:35:39.069Z,5
2017-08-20T06:36:39.804Z,5
2017-08-20T06:37:39.745Z,5
2017-08-20T06:38:39.768Z,5
2017-08-20T06:39:39.784Z,5
2017-08-20T06:40:39.815Z,5
2017-08-20T06:41:39.998Z,5
2017-08-20T06:42:39.893Z,5
2017-08-20T06:43:39.564Z,5
2017-08-20T06:44:39.581Z,5
2017-08-20T06:45:39.933Z,5
2017-08-20T06:46:39.334Z,5
2017-08-20T06:47:39.669Z,5
2017-08-20T06:48:39.700Z,5
2017-08-20T06:49:39.691Z,5
2017-08-20T06:50:39.708Z,5
2017-08-20T06:51:40.049Z,5
2017-08-20T06:52:40.066Z,5
2017-08-20T06:53:39.794Z,5
2017-08-20T06:54:39.827Z,10
2017-08-20T06:55:39.826Z,10
2017-08-20T06:56:40.160Z,10
2017-08-20T06:57:40.209Z,15
2017-08-20T06:58:39.886Z,15
2017-08-20T06:59:40.241Z,20
2017-08-20T07:00:39.948Z,25
2017-08-20T07:01:39.950Z,25
2017-08-20T07:02:39.650Z,25
2017-08-20T07:03:40.018Z,25
2017-08-20T07:04:40.322Z,25
2017-08-20T07:05:40.352Z,25
2017-08-20T07:06:40.375Z,25
2017-08-20T07:07:40.402Z,25
2017-08-20T07:08:40.421Z,25
2017-08-20T07:09:39.805Z,25
2017-08-20T07:10:40.475Z,25
2017-08-20T07:11:40.484Z,25
2017-08-20T07:12:40.319Z,25
2017-08-20T07:13:40.540Z,25
2017-08-20T07:14:40.554Z,25
2017-08-20T07:15:40.575Z,25
2017-08-20T07:16:40.298Z,25
2017-08-20T07:17:40.314Z,25
2017-08-20T07:18:40.653Z,25
2017-08-20T07:19:40.745Z,25
2017-08-20T07:20:40.056Z,25
2017-08-20T07:21:40.142Z,25
2017-08-20T07:22:40.932Z,25
2017-08-20T07:23:40.850Z,30
2017-08-20T07:24:40.195Z,30
2017-08-20T07:25:40.848Z,30
2017-08-20T07:26:40.522Z,30
2017-08-20T07:27:40.668Z,30
2017-08-20T07:28:40.646Z,30
2017-08-20T07:29:40.668Z,30
2017-08-20T07:30:40.692Z,30
2017-08-20T07:31:40.956Z,30
2017-08-20T07:32:40.631Z,30
2017-08-20T07:33:40.381Z,30
2017-08-20T07:34:40.993Z,30
2017-08-20T07:35:41.021Z,30
2017-08-20T07:36:40.723Z,30
2017-08-20T07:37:41.079Z,30
2017-08-20T07:38:40.972Z,30
2017-08-20T07:39:40.800Z,30
2017-08-20T07:40:41.130Z,30
2017-08-20T07:41:40.840Z,30
2017-08-20T07:42:40.544Z,30
2017-08-20T07:43:40.878Z,30
2017-08-20T07:44:40.585Z,30
2017-08-20T07:45:40.929Z,30
2017-08-20T07:46:41.280Z,30
2017-08-20T07:47:41.287Z,25
2017-08-20T07:48:40.988Z,25
2017-08-20T07:49:41.327Z,25
2017-08-20T07:50:41.036Z,25
2017-08-20T07:51:41.060Z,25
2017-08-20T07:52:41.398Z,30
2017-08-20T07:53:41.128Z,25
2017-08-20T07:54:41.128Z,25
2017-08-20T07:55:40.840Z,25
2017-08-20T07:56:41.169Z,25
2017-08-20T07:57:41.196Z,25
2017-08-20T07:58:40.591Z,25
2017-08-20T07:59:41.277Z,30
2017-08-20T08:00:41.462Z,30
2017-08-20T08:01:41.611Z,25
2017-08-20T08:02:41.310Z,25
2017-08-20T08:03:41.338Z,30
2017-08-20T08:04:41.361Z,30
2017-08-20T08:05:41.377Z,30
2017-08-20T08:06:41.709Z,30
2017-08-20T08:07:41.872Z,30
2017-08-20T08:08:41.769Z,30
2017-08-20T08:09:41.356Z,30
2017-08-20T08:10:41.519Z,30
2017-08-20T08:11:41.840Z,30
2017-08-20T08:12:41.538Z,30
2017-08-20T08:13:41.247Z,30
2017-08-20T08:14:41.601Z,30
2017-08-20T08:15:42.136Z,30
2017-08-20T08:16:41.687Z,30
2017-08-20T08:17:41.338Z,30
2017-08-20T08:18:41.671Z,30
2017-08-20T08:19:41.556Z,30
2017-08-20T08:20:41.896Z,30
2017-08-20T08:21:41.434Z,30
2017-08-20T08:22:41.253Z,30
2017-08-20T08:23:42.190Z,30
2017-08-20T08:24:41.816Z,25
2017-08-20T08:25:41.848Z,25
2017-08-20T08:26:41.869Z,25
2017-08-20T08:27:41.886Z,30
2017-08-20T08:28:41.908Z,30
2017-08-20T08:29:42.251Z,30
2017-08-20T08:30:42.146Z,30
2017-08-20T08:31:42.363Z,35
2017-08-20T08:32:42.004Z,40
2017-08-20T08:33:42.102Z,40
2017-08-20T08:34:42.245Z,45
2017-08-20T08:35:41.759Z,45
2017-08-20T08:36:42.445Z,45
2017-08-20T08:37:42.244Z,45
2017-08-20T08:38:42.142Z,40
2017-08-20T08:39:42.167Z,35
2017-08-20T08:40:41.870Z,30
2017-08-20T08:41:41.976Z,30
2017-08-20T08:42:41.919Z,30
2017-08-20T08:43:42.340Z,35
2017-08-20T08:44:42.367Z,35
2017-08-20T08:45:42.634Z,35
2017-08-20T08:46:42.775Z,35
2017-08-20T08:47:42.369Z,35
2017-08-20T08:48:42.382Z,35
2017-08-20T08:49:42.416Z,35
2017-08-20T08:50:42.739Z,35
2017-08-20T08:51:42.770Z,35
2017-08-20T08:52:42.805Z,35
2017-08-20T08:53:42.819Z,35
2017-08-20T08:54:42.297Z,30
2017-08-20T08:55:42.991Z,25
2017-08-20T08:56:42.569Z,25
2017-08-20T08:57:42.937Z,25
2017-08-20T08:58:42.623Z,20
2017-08-20T08:59:42.958Z,20
2017-08-20T09:00:42.669Z,20
2017-08-20T09:01:43.037Z,20
2017-08-20T09:02:42.095Z,25
2017-08-20T09:03:43.052Z,25
2017-08-20T09:04:43.242Z,25
2017-08-20T09:05:43.225Z,25
2017-08-20T09:06:43.223Z,25
2017-08-20T09:07:43.233Z,25
2017-08-20T09:08:42.864Z,25
2017-08-20T09:09:43.203Z,25
2017-08-20T09:10:43.235Z,20
2017-08-20T09:11:42.742Z,15
2017-08-20T09:12:43.275Z,20
2017-08-20T09:13:42.666Z,20
2017-08-20T09:14:42.691Z,20
2017-08-20T09:15:43.346Z,20
2017-08-20T09:16:42.849Z,20
2017-08-20T09:17:42.764Z,20
2017-08-20T09:18:43.420Z,20
2017-08-20T09:19:43.128Z,20
2017-08-20T09:20:43.470Z,20
2017-08-20T09:21:43.276Z,20
2017-08-20T09:22:43.275Z,25
2017-08-20T09:23:43.550Z,20
2017-08-20T09:24:43.248Z,20
2017-08-20T09:25:43.017Z,20
2017-08-20T09:26:43.299Z,15
2017-08-20T09:27:43.319Z,20
2017-08-20T09:28:43.346Z,15
2017-08-20T09:29:43.366Z,15
2017-08-20T09:30:43.392Z,15
2017-08-20T09:31:43.423Z,20
2017-08-20T09:32:43.128Z,20
2017-08-20T09:33:43.783Z,20
2017-08-20T09:34:43.176Z,30
2017-08-20T09:35:43.519Z,35
2017-08-20T09:36:43.535Z,25
2017-08-20T09:37:43.251Z,25
2017-08-20T09:38:43.905Z,25
2017-08-20T09:39:43.613Z,25
2017-08-20T09:40:43.962Z,25
2017-08-20T09:41:43.464Z,25
2017-08-20T09:42:43.930Z,30
2017-08-20T09:43:43.394Z,45
2017-08-20T09:44:43.530Z,55
2017-08-20T09:45:44.184Z,60
2017-08-20T09:46:44.226Z,60
2017-08-20T09:47:44.024Z,60
2017-08-20T09:48:44.026Z,60
2017-08-20T09:49:43.719Z,65
2017-08-20T09:50:44.061Z,60
2017-08-20T09:51:44.230Z,55
2017-08-20T09:52:43.623Z,55
2017-08-20T09:53:43.965Z,45
2017-08-20T09:54:44.004Z,35
2017-08-20T09:55:44.013Z,30
2017-08-20T09:56:43.824Z,20
2017-08-20T09:57:44.080Z,15
2017-08-20T09:58:44.292Z,15
2017-08-20T09:59:44.556Z,15
2017-08-20T10:00:44.554Z,20
2017-08-20T10:01:44.160Z,20
2017-08-20T10:02:43.867Z,25
2017-08-20T10:03:44.525Z,40
2017-08-20T10:04:44.554Z,40
2017-08-20T10:05:44.576Z,35
2017-08-20T10:06:44.286Z,40
2017-08-20T10:07:44.640Z,25
2017-08-20T10:08:44.656Z,15
2017-08-20T10:09:44.358Z,15
2017-08-20T10:10:44.078Z,25
2017-08-20T10:11:44.425Z,25
2017-08-20T10:12:44.450Z,25
2017-08-20T10:13:44.235Z,30
2017-08-20T10:14:44.902Z,25
2017-08-20T10:15:44.923Z,20
2017-08-20T10:16:44.238Z,20
2017-08-20T10:17:44.948Z,20
2017-08-20T10:18:44.907Z,20
2017-08-20T10:19:44.618Z,20
2017-08-20T10:20:44.637Z,15
2017-08-20T10:21:44.670Z,15
2017-08-20T10:22:44.715Z,25
2017-08-20T10:23:45.032Z,25
2017-08-20T10:24:45.080Z,25
2017-08-20T10:25:45.081Z,20
2017-08-20T10:26:44.827Z,25
2017-08-20T10:27:44.820Z,25
2017-08-20T10:28:45.162Z,15
2017-08-20T10:29:45.089Z,25
2017-08-20T10:30:44.889Z,25
2017-08-20T10:31:44.918Z,25
2017-08-20T10:32:45.267Z,25
2017-08-20T10:33:44.650Z,25
2017-08-20T10:34:44.999Z,30
2017-08-20T10:35:45.015Z,40
2017-08-20T10:36:45.043Z,45
2017-08-20T10:37:45.076Z,40
2017-08-20T10:38:45.094Z,30
2017-08-20T10:39:45.121Z,35
2017-08-20T10:40:45.148Z,45
2017-08-20T10:41:45.501Z,55
2017-08-20T10:42:45.204Z,35
2017-08-20T10:43:44.903Z,35
2017-08-20T10:44:45.606Z,35
2017-08-20T10:45:45.079Z,50
2017-08-20T10:46:45.390Z,55
2017-08-20T10:47:45.576Z,60
2017-08-20T10:48:46.091Z,65
2017-08-20T10:49:45.574Z,75
2017-08-20T10:50:45.589Z,65
2017-08-20T10:51:45.897Z,45
2017-08-20T10:52:45.579Z,40
2017-08-20T10:53:45.897Z,45
2017-08-20T10:54:46.031Z,40
2017-08-20T10:55:46.031Z,35
2017-08-20T10:56:45.560Z,25
2017-08-20T10:57:45.634Z,40
2017-08-20T10:58:45.323Z,25
2017-08-20T10:59:45.953Z,20
2017-08-20T11:00:46.082Z,25
2017-08-20T11:01:46.107Z,25
2017-08-20T11:02:46.115Z,25
2017-08-20T11:03:46.116Z,25
2017-08-20T11:04:46.221Z,25
2017-08-20T11:05:45.904Z,20
2017-08-20T11:06:46.230Z,20
2017-08-20T11:07:45.862Z,25
2017-08-20T11:08:46.015Z,25
2017-08-20T11:09:45.718Z,30
2017-08-20T11:10:46.211Z,35
2017-08-20T11:11:46.146Z,35
2017-08-20T11:12:45.696Z,40
2017-08-20T11:13:46.009Z,45
2017-08-20T11:14:46.123Z,50
2017-08-20T11:15:46.149Z,45
2017-08-20T11:16:46.598Z,40
2017-08-20T11:17:46.512Z,35
2017-08-20T11:18:46.246Z,35
2017-08-20T11:19:46.707Z,35
2017-08-20T11:20:46.908Z,40
2017-08-20T11:21:46.526Z,50
2017-08-20T11:22:46.244Z,55
2017-08-20T11:23:46.264Z,55
2017-08-20T11:24:46.612Z,65
2017-08-20T11:25:46.633Z,65
2017-08-20T11:26:46.350Z,70
2017-08-20T11:27:46.789Z,75
2017-08-20T11:28:46.401Z,75
2017-08-20T11:29:46.119Z,75
2017-08-20T11:30:46.766Z,75
2017-08-20T11:31:46.566Z,65
2017-08-20T11:32:46.509Z,65
2017-08-20T11:33:46.626Z,75
2017-08-20T11:34:46.246Z,80
2017-08-20T11:35:45.961Z,80
2017-08-20T11:36:46.614Z,80
2017-08-20T11:37:46.008Z,85
2017-08-20T11:38:47.083Z,75
2017-08-20T11:39:46.781Z,70
2017-08-20T11:40:46.946Z,45
2017-08-20T11:41:46.949Z,40
2017-08-20T11:42:46.955Z,50
2017-08-20T11:43:47.183Z,55
2017-08-20T11:44:46.856Z,30
2017-08-20T11:45:46.863Z,25
2017-08-20T11:46:47.200Z,25
2017-08-20T11:47:47.237Z,20
2017-08-20T11:48:46.796Z,15
2017-08-20T11:49:46.766Z,15
2017-08-20T11:50:46.163Z,10
2017-08-20T11:51:47.026Z,15
2017-08-20T11:52:47.066Z,15
2017-08-20T11:53:46.460Z,20
2017-08-20T11:54:46.785Z,25
2017-08-20T11:55:47.458Z,25
2017-08-20T11:56:47.480Z,20
2017-08-20T11:57:47.513Z,15
2017-08-20T11:58:47.217Z,10
2017-08-20T11:59:47.567Z,10
2017-08-20T12:00:47.275Z,10
2017-08-20T12:01:47.622Z,10
2017-08-20T12:02:47.664Z,5
2017-08-20T12:03:47.667Z,5
2017-08-20T12:04:47.702Z,5
2017-08-20T12:05:47.732Z,5
2017-08-20T12:06:47.193Z,5
2017-08-20T12:07:47.552Z,5
2017-08-20T12:08:47.811Z,5
2017-08-20T12:09:47.836Z,5
2017-08-20T12:10:47.864Z,5
2017-08-20T12:11:47.577Z,10
2017-08-20T12:12:47.601Z,10
2017-08-20T12:13:47.625Z,15
2017-08-20T12:14:47.658Z,20
2017-08-20T12:15:47.894Z,20
2017-08-20T12:16:47.717Z,20
2017-08-20T12:17:47.446Z,25
2017-08-20T12:18:47.768Z,25
2017-08-20T12:19:47.798Z,25
2017-08-20T12:20:48.298Z,25
2017-08-20T12:21:47.949Z,20
2017-08-20T12:22:47.873Z,25
2017-08-20T12:23:47.928Z,30
2017-08-20T12:24:48.257Z,35
2017-08-20T12:25:48.274Z,45
2017-08-20T12:26:47.991Z,50
2017-08-20T12:27:48.134Z,55
2017-08-20T12:28:48.040Z,60
2017-08-20T12:29:48.452Z,80
2017-08-20T12:30:48.417Z,80
2017-08-20T12:31:48.596Z,60
2017-08-20T12:32:47.890Z,55
2017-08-20T12:33:48.576Z,60
2017-08-20T12:34:48.603Z,60
2017-08-20T12:35:47.940Z,65
2017-08-20T12:36:48.589Z,60
2017-08-20T12:37:48.608Z,55
2017-08-20T12:38:48.630Z,55
2017-08-20T12:39:48.467Z,50
2017-08-20T12:40:48.701Z,45
2017-08-20T12:41:48.727Z,35
2017-08-20T12:42:48.512Z,30
2017-08-20T12:43:48.145Z,25
2017-08-20T12:44:48.810Z,25
2017-08-20T12:45:48.827Z,25
2017-08-20T12:46:48.546Z,25
2017-08-20T12:47:48.559Z,30
2017-08-20T12:48:49.117Z,35
2017-08-20T12:49:48.624Z,40
2017-08-20T12:50:48.648Z,45
2017-08-20T12:51:48.449Z,50
2017-08-20T12:52:49.229Z,55
2017-08-20T12:53:49.180Z,60
2017-08-20T12:54:49.341Z,55
2017-08-20T12:55:48.806Z,50
2017-08-20T12:56:49.338Z,50
2017-08-20T12:57:49.337Z,60
2017-08-20T12:58:49.414Z,60
2017-08-20T12:59:48.755Z,55
2017-08-20T13:00:49.068Z,50
2017-08-20T13:01:48.969Z,45
2017-08-20T13:02:49.289Z,40
2017-08-20T13:03:49.089Z,35
2017-08-20T13:04:48.479Z,30
2017-08-20T13:05:48.734Z,30
2017-08-20T13:06:49.598Z,30
2017-08-20T13:07:48.796Z,25
2017-08-20T13:08:48.940Z,25
2017-08-20T13:09:49.169Z,25
2017-08-20T13:10:49.198Z,25
2017-08-20T13:11:49.221Z,25
2017-08-20T13:12:49.655Z,20
2017-08-20T13:13:49.366Z,15
2017-08-20T13:14:48.671Z,15
2017-08-20T13:15:49.354Z,15
2017-08-20T13:16:49.702Z,15
2017-08-20T13:17:49.404Z,20
2017-08-20T13:18:49.090Z,20
2017-08-20T13:19:49.120Z,15
2017-08-20T13:20:49.966Z,15
2017-08-20T13:21:49.608Z,15
2017-08-20T13:22:49.523Z,15
2017-08-20T13:23:49.870Z,15
2017-08-20T13:24:49.569Z,15
2017-08-20T13:25:49.283Z,15
2017-08-20T13:26:49.627Z,15
2017-08-20T13:27:49.970Z,15
2017-08-20T13:28:49.707Z,15
2017-08-20T13:29:49.717Z,15
2017-08-20T13:30:49.851Z,15
2017-08-20T13:31:49.885Z,15
2017-08-20T13:32:49.695Z,15
2017-08-20T13:33:49.897Z,15
2017-08-20T13:34:49.527Z,20
2017-08-20T13:35:50.496Z,20
2017-08-20T13:36:50.383Z,20
2017-08-20T13:37:50.060Z,20
2017-08-20T13:38:50.066Z,15
2017-08-20T13:39:50.379Z,20
2017-08-20T13:40:50.572Z,20
2017-08-20T13:41:50.500Z,20
2017-08-20T13:42:50.445Z,25
2017-08-20T13:43:50.526Z,30
2017-08-20T13:44:50.519Z,30
2017-08-20T13:45:50.245Z,30
2017-08-20T13:46:50.251Z,35
2017-08-20T13:47:50.501Z,30
2017-08-20T13:48:50.538Z,30
2017-08-20T13:49:50.356Z,30
2017-08-20T13:50:50.585Z,30
2017-08-20T13:51:50.612Z,35
2017-08-20T13:52:50.642Z,35
2017-08-20T13:53:50.352Z,35
2017-08-20T13:54:50.433Z,35
2017-08-20T13:55:50.723Z,35
2017-08-20T13:56:50.424Z,35
2017-08-20T13:57:50.462Z,35
2017-08-20T13:58:50.810Z,35
2017-08-20T13:59:50.508Z,35
2017-08-20T14:00:50.981Z,45
2017-08-20T14:01:50.980Z,50
2017-08-20T14:02:50.383Z,55
2017-08-20T14:03:51.263Z,55
2017-08-20T14:04:50.836Z,55
2017-08-20T14:05:50.662Z,55
2017-08-20T14:06:51.012Z,50
2017-08-20T14:07:51.046Z,50
2017-08-20T14:08:51.079Z,50
2017-08-20T14:09:51.101Z,50
2017-08-20T14:10:51.128Z,55
2017-08-20T14:11:50.822Z,60
2017-08-20T14:12:50.857Z,55
2017-08-20T14:13:50.880Z,55
2017-08-20T14:14:50.904Z,60
2017-08-20T14:15:51.319Z,65
2017-08-20T14:16:50.397Z,60
2017-08-20T14:17:51.387Z,60
2017-08-20T14:18:51.387Z,55
2017-08-20T14:19:51.061Z,70
2017-08-20T14:20:51.506Z,70
2017-08-20T14:21:51.097Z,70
2017-08-20T14:22:51.557Z,70
2017-08-20T14:23:51.149Z,70
2017-08-20T14:24:50.854Z,70
2017-08-20T14:25:50.590Z,70
2017-08-20T14:26:51.230Z,70
2017-08-20T14:27:50.933Z,50
2017-08-20T14:28:50.967Z,45
2017-08-20T14:29:51.316Z,55
2017-08-20T14:30:51.652Z,40